Time;durP1;ratioP1;P1;durP2;ratioP2;P2;SDS_P1;SDS_P2;PMS_P1;PMS_P2;Temp;Humidity;BMP_temperature;BMP_pressure;BME280_temperature;BME280_humidity;BME280_pressure;Samples;Min_cycle;Max_cycle;Signal;HPM_P1;HPM_P2
2023/08/30 00:02:01;;;;;;;3.23;2.60;;;;;;;;;;4967563;28;20187;-79
2023/08/30 00:04:27;;;;;;;4.63;2.67;;;;;;;;;;4965830;28;20249;-79
2023/08/30 00:06:53;;;;;;;2.87;2.07;;;;;;;;;;4962391;28;20428;-80
2023/08/30 00:09:19;;;;;;;3.73;2.10;;;;;;;;;;4967076;28;20655;-81
2023/08/30 00:11:45;;;;;;;2.90;1.97;;;;;;;;;;4964594;28;20232;-82
2023/08/30 00:14:11;;;;;;;2.53;1.63;;;;;;;;;;4963185;28;20181;-81
2023/08/30 00:16:38;;;;;;;3.30;2.43;;;;;;;;;;4966984;28;20181;-85
2023/08/30 00:19:04;;;;;;;4.07;2.30;;;;;;;;;;4965168;28;20883;-85
2023/08/30 00:21:30;;;;;;;2.67;1.90;;;;;;;;;;4965609;28;20442;-82
2023/08/30 00:23:56;;;;;;;4.07;2.27;;;;;;;;;;4966680;28;20432;-81
2023/08/30 00:26:22;;;;;;;3.53;1.60;;;;;;;;;;4964774;28;20617;-81
2023/08/30 00:28:47;;;;;;;3.10;1.90;;;;;;;;;;4966166;28;20428;-81
2023/08/30 00:31:13;;;;;;;3.23;2.60;;;;;;;;;;4966344;28;20421;-81
2023/08/30 00:33:39;;;;;;;4.47;1.90;;;;;;;;;;4964742;28;20421;-81
2023/08/30 00:36:05;;;;;;;3.73;2.37;;;;;;;;;;4964612;28;20498;-81
2023/08/30 00:38:34;;;;;;;4.57;1.97;;;;;;;;;;4965018;28;20267;-81
2023/08/30 00:41:00;;;;;;;3.13;2.53;;;;;;;;;;4969739;28;20510;-81
2023/08/30 00:43:26;;;;;;;3.50;2.30;;;;;;;;;;4967079;28;20521;-81
2023/08/30 00:45:52;;;;;;;3.40;2.60;;;;;;;;;;4965893;28;20515;-80
2023/08/30 00:48:19;;;;;;;3.40;2.30;;;;;;;;;;4965793;28;20461;-80
2023/08/30 00:50:46;;;;;;;3.90;2.27;;;;;;;;;;4956171;28;20436;-80
2023/08/30 00:53:12;;;;;;;2.30;1.50;;;;;;;;;;4956088;28;20461;-80
2023/08/30 00:55:38;;;;;;;2.20;1.33;;;;;;;;;;4956133;28;20935;-85
2023/08/30 00:58:05;;;;;;;2.60;1.67;;;;;;;;;;4956007;28;20463;-84
2023/08/30 01:00:31;;;;;;;2.50;2.13;;;;;;;;;;4971475;28;20461;-80
2023/08/30 01:02:57;;;;;;;2.43;1.93;;;;;;;;;;4975367;28;20417;-84
2023/08/30 01:05:24;;;;;;;3.20;1.97;;;;;;;;;;4975034;28;20466;-84
2023/08/30 01:07:50;;;;;;;3.00;1.60;;;;;;;;;;4974987;28;20466;-85
2023/08/30 01:10:16;;;;;;;4.73;3.80;;;;;;;;;;4975169;28;20889;-85
2023/08/30 01:12:54;;;;;;;3.93;2.07;;;;;;;;;;4975201;28;20772;-83
2023/08/30 01:15:20;;;;;;;3.63;2.37;;;;;;;;;;4975066;28;20781;-84
2023/08/30 01:17:48;;;;;;;2.60;2.20;;;;;;;;;;4975036;28;20481;-84
2023/08/30 01:20:20;;;;;;;3.83;3.13;;;;;;;;;;4974996;28;20431;-84
2023/08/30 01:23:01;;;;;;;3.60;2.37;;;;;;;;;;4974654;28;20808;-84
2023/08/30 01:25:27;;;;;;;3.00;2.23;;;;;;;;;;4974864;28;20447;-84
2023/08/30 01:27:53;;;;;;;3.90;3.00;;;;;;;;;;4974926;28;20415;-84
2023/08/30 01:30:20;;;;;;;5.73;3.07;;;;;;;;;;4974855;28;20412;-85
2023/08/30 01:32:46;;;;;;;3.90;3.00;;;;;;;;;;4974747;28;20420;-86
2023/08/30 01:35:17;;;;;;;3.30;2.20;;;;;;;;;;4974724;28;20466;-85
2023/08/30 01:37:43;;;;;;;3.53;3.13;;;;;;;;;;4973606;28;20431;-84
2023/08/30 01:40:10;;;;;;;3.40;2.70;;;;;;;;;;4974636;28;20515;-84
2023/08/30 01:42:36;;;;;;;3.60;2.77;;;;;;;;;;4974669;28;20408;-83
2023/08/30 01:45:03;;;;;;;3.60;3.17;;;;;;;;;;4974604;28;20490;-82
2023/08/30 01:47:30;;;;;;;4.40;3.30;;;;;;;;;;4974540;28;20499;-82
2023/08/30 01:49:57;;;;;;;4.23;3.33;;;;;;;;;;4974573;28;20472;-83
2023/08/30 01:52:23;;;;;;;5.03;4.47;;;;;;;;;;4974240;28;20496;-84
2023/08/30 01:54:51;;;;;;;4.03;3.67;;;;;;;;;;4974534;28;20896;-84
2023/08/30 01:57:17;;;;;;;3.47;2.90;;;;;;;;;;4973231;28;20935;-83
2023/08/30 01:59:43;;;;;;;5.03;3.00;;;;;;;;;;4974330;28;20478;-79
2023/08/30 02:02:09;;;;;;;3.47;3.17;;;;;;;;;;4974427;28;20412;-79
2023/08/30 02:04:35;;;;;;;3.33;2.73;;;;;;;;;;4973747;28;20573;-84
2023/08/30 02:07:02;;;;;;;3.53;2.97;;;;;;;;;;4974053;28;20409;-79
2023/08/30 02:09:38;;;;;;;4.53;3.43;;;;;;;;;;4974314;28;20425;-79
2023/08/30 02:12:07;;;;;;;5.20;3.93;;;;;;;;;;4973032;28;20448;-80
2023/08/30 02:14:34;;;;;;;4.30;2.70;;;;;;;;;;4974273;28;20418;-82
2023/08/30 02:17:00;;;;;;;3.20;2.70;;;;;;;;;;4973034;28;20466;-79
2023/08/30 02:19:26;;;;;;;4.20;3.00;;;;;;;;;;4974199;28;20968;-79
2023/08/30 02:21:52;;;;;;;3.97;3.57;;;;;;;;;;4973897;28;20302;-79
2023/08/30 02:24:18;;;;;;;4.40;4.00;;;;;;;;;;4974125;28;20503;-79
2023/08/30 02:26:44;;;;;;;3.90;3.43;;;;;;;;;;4974139;28;20422;-80
2023/08/30 02:29:10;;;;;;;8.23;3.83;;;;;;;;;;4972913;28;20422;-79
2023/08/30 02:31:36;;;;;;;4.70;3.00;;;;;;;;;;4974170;28;20475;-79
2023/08/30 02:34:02;;;;;;;4.00;3.13;;;;;;;;;;4974108;28;20462;-79
2023/08/30 02:36:28;;;;;;;5.23;3.97;;;;;;;;;;4973713;28;20495;-78
2023/08/30 02:38:54;;;;;;;5.13;3.63;;;;;;;;;;4973783;28;21005;-78
2023/08/30 02:41:20;;;;;;;3.30;2.73;;;;;;;;;;4956704;28;20485;-79
2023/08/30 02:43:46;;;;;;;3.80;3.20;;;;;;;;;;4973988;28;20434;-79
2023/08/30 02:46:12;;;;;;;4.10;2.93;;;;;;;;;;4973977;28;20418;-78
2023/08/30 02:48:37;;;;;;;4.33;3.80;;;;;;;;;;4973978;28;20419;-79
2023/08/30 02:51:03;;;;;;;7.07;2.90;;;;;;;;;;4973620;28;20891;-85
2023/08/30 02:53:29;;;;;;;4.73;4.13;;;;;;;;;;4973957;28;20191;-79
2023/08/30 02:55:55;;;;;;;4.90;4.10;;;;;;;;;;4973882;28;20414;-79
2023/08/30 02:58:22;;;;;;;6.10;5.13;;;;;;;;;;4973745;28;20478;-87
2023/08/30 03:00:48;;;;;;;5.77;5.17;;;;;;;;;;4973897;28;20412;-80
2023/08/30 03:03:14;;;;;;;5.70;4.73;;;;;;;;;;4973846;28;20481;-83
2023/08/30 03:05:40;;;;;;;5.33;4.63;;;;;;;;;;4973368;28;20230;-84
2023/08/30 03:08:06;;;;;;;4.57;4.17;;;;;;;;;;4973634;28;20417;-84
2023/08/30 03:10:32;;;;;;;6.30;5.10;;;;;;;;;;4973703;28;20458;-82
2023/08/30 03:12:58;;;;;;;8.57;6.50;;;;;;;;;;4973736;28;20433;-83
2023/08/30 03:15:24;;;;;;;7.90;6.30;;;;;;;;;;4973804;28;20424;-83
2023/08/30 03:17:50;;;;;;;7.03;6.30;;;;;;;;;;4959926;28;20420;-83
2023/08/30 03:20:15;;;;;;;7.60;6.90;;;;;;;;;;4976903;28;20428;-83
2023/08/30 03:22:42;;;;;;;6.70;6.00;;;;;;;;;;4977153;28;20184;-83
2023/08/30 03:25:09;;;;;;;7.37;5.20;;;;;;;;;;4977108;28;20176;-83
2023/08/30 03:27:35;;;;;;;8.47;5.73;;;;;;;;;;4977020;28;20474;-83
2023/08/30 03:30:01;;;;;;;6.40;5.73;;;;;;;;;;4977097;28;20419;-84
2023/08/30 03:32:28;;;;;;;6.57;5.97;;;;;;;;;;4977007;28;20920;-83
2023/08/30 03:34:53;;;;;;;7.20;5.90;;;;;;;;;;4976979;28;20416;-83
2023/08/30 03:37:19;;;;;;;8.60;6.10;;;;;;;;;;4977035;28;20411;-83
2023/08/30 03:39:45;;;;;;;8.30;7.27;;;;;;;;;;4976834;28;20212;-83
2023/08/30 03:42:11;;;;;;;7.77;7.03;;;;;;;;;;4976908;28;20176;-83
2023/08/30 03:44:38;;;;;;;7.90;6.23;;;;;;;;;;4976804;28;20416;-83
2023/08/30 03:47:04;;;;;;;7.10;5.67;;;;;;;;;;4976789;28;20428;-84
2023/08/30 03:49:30;;;;;;;8.00;6.60;;;;;;;;;;4959426;28;20462;-84
2023/08/30 03:51:56;;;;;;;6.57;5.93;;;;;;;;;;4976296;28;20415;-83
2023/08/30 03:54:22;;;;;;;8.07;7.27;;;;;;;;;;4976617;28;20420;-84
2023/08/30 03:56:48;;;;;;;6.63;5.93;;;;;;;;;;4976595;28;20180;-85
2023/08/30 03:59:14;;;;;;;7.30;6.50;;;;;;;;;;4976403;28;20211;-84
2023/08/30 04:01:40;;;;;;;6.37;5.77;;;;;;;;;;4976475;28;20184;-85
2023/08/30 04:04:06;;;;;;;6.73;6.07;;;;;;;;;;4976186;28;20459;-84
2023/08/30 04:06:32;;;;;;;7.47;6.77;;;;;;;;;;4976199;28;20180;-84
2023/08/30 04:08:58;;;;;;;6.20;5.10;;;;;;;;;;4976368;28;20502;-82
2023/08/30 04:11:24;;;;;;;6.83;6.20;;;;;;;;;;4976337;28;20518;-83
2023/08/30 04:13:50;;;;;;;9.70;6.63;;;;;;;;;;4979003;28;20183;-83
2023/08/30 04:16:16;;;;;;;7.43;6.10;;;;;;;;;;4976628;28;20515;-80
2023/08/30 04:18:41;;;;;;;7.07;6.37;;;;;;;;;;4976120;28;20548;-82
2023/08/30 04:21:08;;;;;;;6.40;5.80;;;;;;;;;;4975774;28;20412;-79
2023/08/30 04:23:34;;;;;;;5.97;5.33;;;;;;;;;;4976074;28;20499;-83
2023/08/30 04:26:00;;;;;;;7.73;5.70;;;;;;;;;;4975979;28;20450;-83
2023/08/30 04:28:29;;;;;;;5.10;4.70;;;;;;;;;;4975605;28;20414;-82
2023/08/30 04:30:55;;;;;;;6.40;5.80;;;;;;;;;;4975937;28;20419;-83
2023/08/30 04:33:21;;;;;;;7.00;4.80;;;;;;;;;;4975983;28;20493;-81
2023/08/30 04:35:51;;;;;;;5.73;5.23;;;;;;;;;;4975510;28;20423;-83
2023/08/30 04:38:17;;;;;;;5.27;4.77;;;;;;;;;;4975768;28;20450;-83
2023/08/30 04:40:43;;;;;;;5.30;4.80;;;;;;;;;;4975805;28;20943;-83
2023/08/30 04:43:09;;;;;;;5.40;4.70;;;;;;;;;;4975669;28;20175;-84
2023/08/30 04:45:35;;;;;;;5.50;5.00;;;;;;;;;;4975697;28;20533;-80
2023/08/30 04:48:01;;;;;;;6.20;5.60;;;;;;;;;;4975577;28;20419;-83
2023/08/30 04:50:27;;;;;;;5.90;5.40;;;;;;;;;;4975218;28;20425;-81
2023/08/30 04:52:53;;;;;;;5.33;4.63;;;;;;;;;;4975525;28;20415;-84
2023/08/30 04:55:19;;;;;;;5.57;5.00;;;;;;;;;;4975476;28;20403;-80
2023/08/30 04:57:47;;;;;;;5.37;4.87;;;;;;;;;;4975494;28;20171;-84
2023/08/30 05:00:13;;;;;;;6.90;5.50;;;;;;;;;;4975090;28;20416;-82
2023/08/30 05:02:40;;;;;;;9.80;5.43;;;;;;;;;;4974526;28;20438;-84
2023/08/30 05:05:07;;;;;;;5.90;5.30;;;;;;;;;;4974741;28;20475;-80
2023/08/30 05:07:33;;;;;;;4.87;4.00;;;;;;;;;;4965681;28;20411;-81
2023/08/30 05:09:59;;;;;;;6.67;4.47;;;;;;;;;;4971480;28;20472;-84
2023/08/30 05:12:25;;;;;;;4.33;3.63;;;;;;;;;;4965624;28;20500;-82
2023/08/30 05:14:50;;;;;;;7.00;5.73;;;;;;;;;;4964915;28;20503;-85
2023/08/30 05:17:16;;;;;;;5.03;4.07;;;;;;;;;;4964302;28;20882;-83
2023/08/30 05:19:42;;;;;;;6.17;5.23;;;;;;;;;;4965564;28;20554;-82
2023/08/30 05:22:08;;;;;;;5.83;5.00;;;;;;;;;;4975023;28;20409;-80
2023/08/30 05:24:34;;;;;;;5.47;4.57;;;;;;;;;;4971308;28;20447;-85
2023/08/30 05:27:00;;;;;;;6.10;4.30;;;;;;;;;;4956436;28;20409;-87
2023/08/30 05:29:26;;;;;;;5.60;5.10;;;;;;;;;;4964909;28;20955;-85
2023/08/30 05:31:52;;;;;;;5.60;5.07;;;;;;;;;;4972784;28;20194;-86
2023/08/30 05:34:18;;;;;;;4.70;3.70;;;;;;;;;;4974421;28;20414;-85
2023/08/30 05:36:44;;;;;;;4.70;4.03;;;;;;;;;;4974442;28;20410;-83
2023/08/30 05:39:10;;;;;;;5.40;5.00;;;;;;;;;;4973773;28;20531;-84
2023/08/30 05:41:36;;;;;;;6.23;5.50;;;;;;;;;;4974799;28;20420;-85
2023/08/30 05:44:02;;;;;;;5.80;5.07;;;;;;;;;;4974663;28;20448;-84
2023/08/30 05:46:28;;;;;;;6.33;5.33;;;;;;;;;;4974585;28;20411;-85
2023/08/30 05:48:54;;;;;;;5.20;3.90;;;;;;;;;;4973359;28;20500;-84
2023/08/30 05:51:20;;;;;;;7.10;4.07;;;;;;;;;;4974167;28;20486;-84
2023/08/30 05:53:46;;;;;;;5.33;4.83;;;;;;;;;;4974457;28;21167;-84
2023/08/30 05:56:12;;;;;;;5.30;4.07;;;;;;;;;;4973265;28;20803;-85
2023/08/30 05:58:38;;;;;;;4.30;3.90;;;;;;;;;;4974457;28;20214;-88
2023/08/30 06:01:06;;;;;;;5.40;4.03;;;;;;;;;;4974389;28;20184;-87
2023/08/30 06:03:32;;;;;;;5.90;4.97;;;;;;;;;;4974448;28;20192;-86
2023/08/30 06:05:58;;;;;;;4.73;3.60;;;;;;;;;;4973924;28;21017;-87
2023/08/30 06:08:24;;;;;;;4.90;3.80;;;;;;;;;;4974415;28;20812;-85
2023/08/30 06:10:49;;;;;;;3.70;3.37;;;;;;;;;;4974366;28;20467;-85
2023/08/30 06:13:15;;;;;;;5.43;4.17;;;;;;;;;;4973067;28;20183;-85
2023/08/30 06:15:41;;;;;;;4.43;3.93;;;;;;;;;;4974321;28;20190;-84
2023/08/30 06:18:08;;;;;;;5.53;4.20;;;;;;;;;;4974232;28;21041;-86
2023/08/30 06:20:33;;;;;;;4.67;3.87;;;;;;;;;;4973957;28;20267;-84
2023/08/30 06:22:59;;;;;;;4.30;3.70;;;;;;;;;;4974273;28;20414;-84
2023/08/30 06:25:25;;;;;;;3.97;3.47;;;;;;;;;;4974212;28;20934;-86
2023/08/30 06:27:58;;;;;;;4.50;3.37;;;;;;;;;;4974139;28;20181;-84
2023/08/30 06:30:25;;;;;;;4.70;3.60;;;;;;;;;;4974224;28;20469;-84
2023/08/30 06:32:51;;;;;;;4.37;3.37;;;;;;;;;;4974259;28;20410;-84
2023/08/30 06:35:16;;;;;;;3.93;3.53;;;;;;;;;;4973833;28;20940;-84
2023/08/30 06:37:42;;;;;;;4.20;3.50;;;;;;;;;;4974084;28;20180;-83
2023/08/30 06:40:09;;;;;;;4.40;4.00;;;;;;;;;;4974012;28;20473;-83
2023/08/30 06:42:35;;;;;;;4.30;3.73;;;;;;;;;;4974004;28;20410;-85
2023/08/30 06:45:02;;;;;;;4.90;4.10;;;;;;;;;;4974004;28;20419;-86
2023/08/30 06:47:28;;;;;;;5.43;3.70;;;;;;;;;;4974050;28;20489;-84
2023/08/30 06:49:54;;;;;;;4.40;3.40;;;;;;;;;;4974504;28;20422;-83
2023/08/30 06:52:20;;;;;;;4.77;4.00;;;;;;;;;;4977891;28;20172;-83
2023/08/30 06:54:45;;;;;;;3.33;3.03;;;;;;;;;;4977782;28;20203;-82
2023/08/30 06:57:11;;;;;;;4.97;3.77;;;;;;;;;;4976497;28;20422;-79
2023/08/30 06:59:37;;;;;;;5.00;3.00;;;;;;;;;;4977611;28;20575;-79
2023/08/30 07:02:04;;;;;;;2.83;2.63;;;;;;;;;;4977687;28;20178;-84
2023/08/30 07:04:29;;;;;;;4.33;3.50;;;;;;;;;;4977178;28;20454;-84
2023/08/30 07:06:55;;;;;;;3.87;3.23;;;;;;;;;;4977566;28;20923;-84
2023/08/30 07:09:28;;;;;;;4.00;3.60;;;;;;;;;;4977377;28;20770;-84
2023/08/30 07:11:54;;;;;;;3.27;2.97;;;;;;;;;;4977538;28;20510;-84
2023/08/30 07:14:20;;;;;;;4.40;3.23;;;;;;;;;;4977493;28;20493;-85
2023/08/30 07:16:46;;;;;;;3.40;3.10;;;;;;;;;;4977724;28;20454;-85
2023/08/30 07:19:12;;;;;;;4.40;3.10;;;;;;;;;;4977282;28;20567;-84
2023/08/30 07:21:38;;;;;;;4.77;4.10;;;;;;;;;;4975597;28;20849;-83
2023/08/30 07:24:05;;;;;;;4.20;3.90;;;;;;;;;;4977224;28;20179;-84
2023/08/30 07:26:31;;;;;;;4.60;3.37;;;;;;;;;;4977253;28;20447;-85
2023/08/30 07:28:57;;;;;;;3.83;3.53;;;;;;;;;;4977177;28;20420;-82
2023/08/30 07:31:23;;;;;;;4.37;3.97;;;;;;;;;;4977270;28;20183;-85
2023/08/30 07:33:49;;;;;;;5.40;4.90;;;;;;;;;;4977213;28;20219;-84
2023/08/30 07:36:15;;;;;;;5.43;4.63;;;;;;;;;;4976753;28;20664;-86
2023/08/30 07:38:41;;;;;;;5.17;4.13;;;;;;;;;;4977422;28;20211;-89
2023/08/30 07:41:07;;;;;;;4.30;3.90;;;;;;;;;;4976154;28;20191;-83
2023/08/30 07:43:33;;;;;;;4.67;4.30;;;;;;;;;;4977031;28;20180;-86
2023/08/30 07:45:59;;;;;;;6.17;4.60;;;;;;;;;;4976865;28;20192;-85
2023/08/30 07:48:25;;;;;;;4.53;4.13;;;;;;;;;;4976793;28;20992;-87
2023/08/30 07:50:51;;;;;;;5.43;4.93;;;;;;;;;;4976374;28;20412;-85
2023/08/30 07:53:17;;;;;;;5.13;4.63;;;;;;;;;;4975510;28;20427;-85
2023/08/30 07:55:43;;;;;;;4.73;4.33;;;;;;;;;;4976792;28;20412;-85
2023/08/30 07:58:10;;;;;;;4.60;4.20;;;;;;;;;;4976534;28;20176;-87
2023/08/30 08:00:36;;;;;;;4.60;4.20;;;;;;;;;;4976613;28;20408;-87
2023/08/30 08:03:02;;;;;;;5.27;4.70;;;;;;;;;;4975695;28;20451;-86
2023/08/30 08:05:28;;;;;;;4.67;4.27;;;;;;;;;;4975953;28;20621;-87
2023/08/30 08:07:54;;;;;;;4.60;3.90;;;;;;;;;;4976461;28;20462;-80
2023/08/30 08:10:20;;;;;;;6.10;5.57;;;;;;;;;;4976459;28;20177;-85
2023/08/30 08:12:46;;;;;;;5.23;4.73;;;;;;;;;;4975068;28;20423;-86
2023/08/30 08:15:12;;;;;;;4.80;4.40;;;;;;;;;;4976263;28;20476;-87
2023/08/30 08:17:38;;;;;;;8.17;5.20;;;;;;;;;;4976262;28;20498;-87
2023/08/30 08:20:05;;;;;;;6.03;4.70;;;;;;;;;;4974505;28;20219;-87
2023/08/30 08:22:31;;;;;;;6.20;5.47;;;;;;;;;;4976179;28;20180;-87
2023/08/30 08:24:57;;;;;;;6.27;5.67;;;;;;;;;;4976180;28;20443;-84
2023/08/30 08:27:25;;;;;;;6.20;5.70;;;;;;;;;;4976020;28;20172;-83
2023/08/30 08:29:51;;;;;;;5.73;5.00;;;;;;;;;;4976042;28;20412;-82
2023/08/30 08:32:17;;;;;;;6.00;5.40;;;;;;;;;;4975947;28;20420;-84
2023/08/30 08:34:43;;;;;;;6.20;5.50;;;;;;;;;;4975593;28;20172;-84
2023/08/30 08:37:08;;;;;;;7.07;6.27;;;;;;;;;;4975869;28;20641;-85
2023/08/30 08:39:36;;;;;;;6.37;5.77;;;;;;;;;;4975786;28;20243;-87
2023/08/30 08:42:02;;;;;;;7.17;6.50;;;;;;;;;;4975828;28;20168;-87
2023/08/30 08:44:31;;;;;;;9.00;8.10;;;;;;;;;;4975713;28;20447;-88
2023/08/30 08:46:58;;;;;;;7.87;7.17;;;;;;;;;;4975589;28;20923;-88
2023/08/30 08:49:28;;;;;;;8.37;7.67;;;;;;;;;;4974075;28;20524;-85
2023/08/30 08:51:54;;;;;;;7.30;6.70;;;;;;;;;;4975592;28;20423;-87
2023/08/30 08:54:20;;;;;;;7.60;6.90;;;;;;;;;;4975577;28;20416;-86
2023/08/30 08:56:46;;;;;;;7.67;7.07;;;;;;;;;;4975536;28;20466;-86
2023/08/30 08:59:12;;;;;;;7.73;6.93;;;;;;;;;;4975314;28;20223;-86
2023/08/30 09:01:41;;;;;;;7.93;6.00;;;;;;;;;;4975413;28;21003;-86
2023/08/30 09:04:08;;;;;;;7.97;7.27;;;;;;;;;;4974848;28;20998;-86
2023/08/30 09:06:35;;;;;;;8.93;7.57;;;;;;;;;;4975456;28;20495;-86
2023/08/30 09:09:01;;;;;;;8.30;7.03;;;;;;;;;;4975307;28;20420;-85
2023/08/30 09:11:27;;;;;;;6.67;6.00;;;;;;;;;;4975219;28;20404;-87
2023/08/30 09:13:53;;;;;;;7.27;6.67;;;;;;;;;;4975180;28;20767;-87
2023/08/30 09:16:19;;;;;;;7.47;6.70;;;;;;;;;;4975120;28;20179;-87
2023/08/30 09:18:45;;;;;;;8.03;7.23;;;;;;;;;;4975073;28;20216;-87
2023/08/30 09:21:12;;;;;;;8.33;7.50;;;;;;;;;;4974904;28;20183;-87
2023/08/30 09:23:38;;;;;;;8.57;7.77;;;;;;;;;;4975051;28;20447;-86
2023/08/30 09:26:05;;;;;;;6.97;6.37;;;;;;;;;;4974936;28;20440;-87
2023/08/30 09:28:32;;;;;;;7.80;7.00;;;;;;;;;;4975007;28;20435;-86
2023/08/30 09:30:59;;;;;;;7.97;7.00;;;;;;;;;;4976342;28;20422;-86
2023/08/30 09:33:32;;;;;;;7.13;5.80;;;;;;;;;;4978060;28;20470;-84
2023/08/30 09:35:59;;;;;;;7.37;5.83;;;;;;;;;;4974508;28;20426;-83
2023/08/30 09:38:25;;;;;;;6.70;6.00;;;;;;;;;;4974775;28;20489;-79
2023/08/30 09:40:51;;;;;;;6.43;5.73;;;;;;;;;;4974843;28;20481;-87
2023/08/30 09:43:19;;;;;;;6.13;5.57;;;;;;;;;;4974763;28;20419;-86
2023/08/30 09:45:45;;;;;;;5.60;5.10;;;;;;;;;;4974694;28;20787;-87
2023/08/30 09:48:10;;;;;;;5.57;5.00;;;;;;;;;;4974634;28;20407;-86
2023/08/30 09:50:37;;;;;;;6.07;4.67;;;;;;;;;;4974318;28;20920;-86
2023/08/30 09:53:09;;;;;;;5.30;4.80;;;;;;;;;;4974578;28;20506;-87
2023/08/30 09:55:35;;;;;;;5.90;5.13;;;;;;;;;;4974555;28;20426;-87
2023/08/30 09:58:04;;;;;;;5.93;5.40;;;;;;;;;;4974398;28;20420;-86
2023/08/30 10:00:30;;;;;;;5.37;4.57;;;;;;;;;;4974514;28;20827;-85
2023/08/30 10:02:56;;;;;;;7.07;4.77;;;;;;;;;;4974392;28;20408;-87
2023/08/30 10:05:22;;;;;;;6.10;4.53;;;;;;;;;;4974063;28;20907;-86
2023/08/30 10:07:48;;;;;;;7.00;4.80;;;;;;;;;;4974446;28;20451;-86
2023/08/30 10:10:14;;;;;;;6.13;4.43;;;;;;;;;;4974402;28;20270;-86
2023/08/30 10:12:41;;;;;;;7.70;4.07;;;;;;;;;;4974418;28;20661;-87
2023/08/30 10:15:07;;;;;;;5.47;4.33;;;;;;;;;;4974233;28;20778;-84
2023/08/30 10:17:36;;;;;;;5.17;3.70;;;;;;;;;;4974300;28;20422;-86
2023/08/30 10:20:08;;;;;;;4.23;3.07;;;;;;;;;;4973904;28;20478;-88
2023/08/30 10:22:37;;;;;;;7.00;3.40;;;;;;;;;;4974410;28;20408;-87
2023/08/30 10:25:06;;;;;;;5.97;2.73;;;;;;;;;;4976858;28;20423;-85
2023/08/30 10:27:33;;;;;;;3.83;3.33;;;;;;;;;;4980554;28;20502;-86
2023/08/30 10:30:02;;;;;;;3.17;2.87;;;;;;;;;;4979269;28;20422;-86
2023/08/30 10:32:28;;;;;;;3.80;2.80;;;;;;;;;;4980565;28;20747;-86
2023/08/30 10:34:54;;;;;;;5.27;2.53;;;;;;;;;;4980222;28;20423;-89
2023/08/30 10:37:23;;;;;;;5.20;3.50;;;;;;;;;;4980642;28;20422;-88
2023/08/30 10:39:50;;;;;;;3.20;2.60;;;;;;;;;;4980745;28;20223;-87
2023/08/30 10:42:16;;;;;;;3.60;3.00;;;;;;;;;;4980706;28;20569;-85
2023/08/30 10:44:49;;;;;;;4.13;2.30;;;;;;;;;;4980484;28;20409;-85
2023/08/30 10:47:19;;;;;;;3.60;2.63;;;;;;;;;;4980515;28;20409;-85
2023/08/30 10:49:46;;;;;;;8.20;2.83;;;;;;;;;;4980066;28;20423;-84
2023/08/30 10:52:12;;;;;;;3.47;1.90;;;;;;;;;;4979238;28;20832;-84
2023/08/30 10:54:38;;;;;;;2.60;1.67;;;;;;;;;;4980520;28;20411;-85
2023/08/30 10:57:04;;;;;;;3.10;2.20;;;;;;;;;;4980453;28;20407;-84
2023/08/30 10:59:30;;;;;;;3.40;2.13;;;;;;;;;;4980240;28;20487;-83
2023/08/30 11:01:56;;;;;;;4.50;1.87;;;;;;;;;;4980364;28;20407;-85
2023/08/30 11:04:23;;;;;;;4.67;2.30;;;;;;;;;;4979853;28;20475;-85
2023/08/30 11:06:50;;;;;;;3.27;1.70;;;;;;;;;;4980259;28;20896;-85
2023/08/30 11:09:20;;;;;;;3.90;3.13;;;;;;;;;;4980155;28;20797;-80
2023/08/30 11:11:49;;;;;;;5.80;2.80;;;;;;;;;;4980139;28;20407;-80
2023/08/30 11:14:16;;;;;;;5.63;2.57;;;;;;;;;;4980121;28;20407;-85
2023/08/30 11:16:42;;;;;;;3.57;2.37;;;;;;;;;;4980174;28;20448;-84
2023/08/30 11:19:09;;;;;;;2.43;1.50;;;;;;;;;;4979827;28;20955;-80
2023/08/30 11:21:36;;;;;;;3.30;2.57;;;;;;;;;;4978938;28;20427;-83
2023/08/30 11:24:03;;;;;;;2.97;2.00;;;;;;;;;;4980151;28;20427;-86
2023/08/30 11:26:29;;;;;;;4.00;2.87;;;;;;;;;;4980062;28;20419;-81
2023/08/30 11:28:55;;;;;;;4.23;2.73;;;;;;;;;;4980115;28;20430;-81
2023/08/30 11:31:29;;;;;;;5.47;2.57;;;;;;;;;;4980036;28;20243;-84
2023/08/30 11:33:56;;;;;;;3.90;2.10;;;;;;;;;;4979668;28;20829;-87
2023/08/30 11:36:23;;;;;;;2.43;1.30;;;;;;;;;;4977521;28;20404;-86
2023/08/30 11:38:52;;;;;;;2.53;1.63;;;;;;;;;;4976916;28;20868;-87
2023/08/30 11:41:18;;;;;;;2.77;1.60;;;;;;;;;;4976956;28;20416;-85
2023/08/30 11:43:44;;;;;;;2.90;1.97;;;;;;;;;;4976890;28;20789;-87
2023/08/30 11:46:12;;;;;;;3.30;1.73;;;;;;;;;;4976781;28;20424;-84
2023/08/30 11:48:38;;;;;;;3.40;1.63;;;;;;;;;;4976390;28;20466;-87
2023/08/30 11:51:05;;;;;;;2.80;1.40;;;;;;;;;;4976773;28;20423;-84
2023/08/30 11:53:31;;;;;;;2.43;1.87;;;;;;;;;;4976579;28;20499;-85
2023/08/30 11:55:57;;;;;;;6.33;1.63;;;;;;;;;;4976562;28;20447;-84
2023/08/30 11:58:23;;;;;;;3.17;1.77;;;;;;;;;;4976493;28;20665;-86
2023/08/30 12:00:53;;;;;;;4.53;1.90;;;;;;;;;;4976485;28;20439;-83
2023/08/30 12:03:19;;;;;;;4.03;2.27;;;;;;;;;;4976474;28;20909;-87
2023/08/30 12:05:46;;;;;;;4.90;1.80;;;;;;;;;;4976077;28;20509;-88
2023/08/30 12:08:18;;;;;;;5.20;2.00;;;;;;;;;;4976544;28;20486;-87
2023/08/30 12:10:44;;;;;;;4.87;2.30;;;;;;;;;;4976504;28;20459;-87
2023/08/30 12:13:20;;;;;;;3.07;2.40;;;;;;;;;;4959009;28;20428;-80
2023/08/30 12:15:45;;;;;;;3.83;2.40;;;;;;;;;;4957113;28;20996;-85
2023/08/30 12:18:11;;;;;;;3.00;1.50;;;;;;;;;;4956945;28;20400;-84
2023/08/30 12:20:37;;;;;;;4.27;1.77;;;;;;;;;;4956681;29;20417;-79
2023/08/30 12:23:03;;;;;;;4.77;1.73;;;;;;;;;;4956997;28;20212;-80
2023/08/30 12:25:30;;;;;;;4.73;2.03;;;;;;;;;;4956896;28;20902;-84
2023/08/30 12:27:56;;;;;;;3.60;2.23;;;;;;;;;;4956811;28;20422;-83
2023/08/30 12:30:22;;;;;;;2.47;1.83;;;;;;;;;;4956813;28;20786;-79
2023/08/30 12:32:49;;;;;;;2.43;1.77;;;;;;;;;;4956881;28;20409;-87
2023/08/30 12:35:15;;;;;;;2.50;1.40;;;;;;;;;;4956254;28;20200;-86
2023/08/30 12:37:41;;;;;;;4.33;1.97;;;;;;;;;;4956579;28;20425;-82
2023/08/30 12:40:07;;;;;;;3.33;1.67;;;;;;;;;;4956577;28;20531;-86
2023/08/30 12:42:36;;;;;;;4.13;2.10;;;;;;;;;;4956562;28;20208;-82
2023/08/30 12:45:03;;;;;;;3.10;1.70;;;;;;;;;;4956581;28;20431;-91
2023/08/30 12:47:29;;;;;;;3.93;2.13;;;;;;;;;;4956022;28;20416;-87
2023/08/30 12:49:55;;;;;;;3.03;1.90;;;;;;;;;;4956176;28;20431;-85
2023/08/30 12:52:21;;;;;;;3.90;2.07;;;;;;;;;;4939093;29;20914;-89
2023/08/30 12:54:47;;;;;;;2.60;1.40;;;;;;;;;;4956351;28;20212;-86
2023/08/30 12:57:13;;;;;;;2.20;1.37;;;;;;;;;;4969753;28;20412;-88
2023/08/30 12:59:39;;;;;;;4.33;2.83;;;;;;;;;;4966782;28;20842;-85
2023/08/30 13:02:05;;;;;;;4.80;1.80;;;;;;;;;;4971788;28;20288;-84
2023/08/30 13:04:31;;;;;;;2.70;2.17;;;;;;;;;;4970704;28;20707;-80
2023/08/30 13:06:57;;;;;;;5.20;2.50;;;;;;;;;;4971684;28;20432;-80
2023/08/30 13:09:24;;;;;;;4.07;2.03;;;;;;;;;;4974781;28;20231;-80
2023/08/30 13:11:50;;;;;;;6.90;2.60;;;;;;;;;;4968559;28;20578;-85
2023/08/30 13:14:16;;;;;;;2.70;1.90;;;;;;;;;;4972341;28;20415;-83
2023/08/30 13:16:42;;;;;;;2.13;1.83;;;;;;;;;;4973754;28;20188;-83
2023/08/30 13:19:07;;;;;;;3.80;2.10;;;;;;;;;;4971934;28;20222;-87
2023/08/30 13:21:33;;;;;;;4.00;1.90;;;;;;;;;;4973353;28;20688;-86
2023/08/30 13:23:59;;;;;;;5.50;3.03;;;;;;;;;;4974040;28;20188;-83
2023/08/30 13:26:25;;;;;;;3.33;2.30;;;;;;;;;;4973796;28;20595;-85
2023/08/30 13:28:51;;;;;;;3.00;2.17;;;;;;;;;;4973723;28;20168;-84
2023/08/30 13:31:17;;;;;;;4.67;2.70;;;;;;;;;;4973534;28;20172;-86
2023/08/30 13:33:43;;;;;;;2.93;2.27;;;;;;;;;;4973168;28;20664;-80
2023/08/30 13:36:09;;;;;;;4.27;2.20;;;;;;;;;;4973269;28;20172;-81
2023/08/30 13:38:35;;;;;;;3.60;2.07;;;;;;;;;;4956450;28;20219;-86
2023/08/30 13:41:01;;;;;;;3.00;2.57;;;;;;;;;;4973747;28;20470;-83
2023/08/30 13:43:27;;;;;;;3.63;2.80;;;;;;;;;;4973260;28;20180;-82
2023/08/30 13:45:59;;;;;;;4.50;2.83;;;;;;;;;;4973125;28;20432;-86
2023/08/30 13:48:25;;;;;;;7.03;3.43;;;;;;;;;;4972842;28;20905;-81
2023/08/30 13:50:51;;;;;;;5.30;2.87;;;;;;;;;;4973062;28;20496;-85
2023/08/30 13:53:17;;;;;;;3.07;2.67;;;;;;;;;;4973380;28;20191;-87
2023/08/30 13:55:50;;;;;;;7.17;3.50;;;;;;;;;;4955763;28;20430;-80
2023/08/30 13:58:16;;;;;;;2.90;2.23;;;;;;;;;;4972989;28;20474;-86
2023/08/30 14:00:42;;;;;;;6.60;2.70;;;;;;;;;;4971235;28;20447;-88
2023/08/30 14:03:08;;;;;;;5.07;3.40;;;;;;;;;;4972034;28;20424;-86
2023/08/30 14:05:34;;;;;;;2.17;1.97;;;;;;;;;;4971035;28;20480;-86
2023/08/30 14:08:00;;;;;;;6.27;2.83;;;;;;;;;;4972800;28;20411;-81
2023/08/30 14:10:26;;;;;;;5.03;2.70;;;;;;;;;;4972917;28;20450;-83
2023/08/30 14:12:52;;;;;;;3.00;2.57;;;;;;;;;;4973117;28;20254;-83
2023/08/30 14:15:18;;;;;;;4.57;3.33;;;;;;;;;;4972969;28;20430;-85
2023/08/30 14:17:44;;;;;;;3.07;2.47;;;;;;;;;;4973658;28;20183;-85
2023/08/30 14:20:10;;;;;;;3.43;2.77;;;;;;;;;;4973109;28;21037;-85
2023/08/30 14:22:36;;;;;;;5.20;4.00;;;;;;;;;;4973473;28;20509;-86
2023/08/30 14:25:02;;;;;;;5.07;2.90;;;;;;;;;;4972064;28;20525;-85
2023/08/30 14:27:28;;;;;;;3.00;2.80;;;;;;;;;;4973886;28;20190;-87
2023/08/30 14:29:54;;;;;;;4.70;2.83;;;;;;;;;;4973220;28;20428;-86
2023/08/30 14:32:20;;;;;;;3.47;2.80;;;;;;;;;;4973170;28;20435;-82
2023/08/30 14:34:46;;;;;;;5.43;2.90;;;;;;;;;;4972900;28;20187;-85
2023/08/30 14:37:12;;;;;;;3.80;2.87;;;;;;;;;;4973823;28;20664;-83
2023/08/30 14:39:38;;;;;;;5.53;2.77;;;;;;;;;;4973572;28;20210;-82